createdAt,value
2022-08-22T00:00:56.453Z,18.10
2022-08-22T00:01:56.514Z,18.10
2022-08-22T00:02:47.979Z,22.79
2022-08-22T00:02:52.694Z,22.94
2022-08-22T00:02:59.525Z,21.06
2022-08-22T00:03:02.741Z,22.44
2022-08-22T00:03:06.413Z,19.68
2022-08-22T00:03:17.469Z,18.11
2022-08-22T00:03:57.444Z,18.05
2022-08-22T00:04:56.410Z,18.05
2022-08-22T00:05:56.399Z,18.01
2022-08-22T00:06:56.386Z,17.96
2022-08-22T00:07:56.437Z,17.99
2022-08-22T00:08:56.363Z,18.01
2022-08-22T00:09:56.356Z,17.99
2022-08-22T00:10:56.342Z,17.91
2022-08-22T00:11:56.333Z,18.01
2022-08-22T00:12:56.520Z,17.94
2022-08-22T00:14:01.842Z,17.92
2022-08-22T00:14:56.296Z,17.89
2022-08-22T00:15:56.285Z,17.95
2022-08-22T00:16:56.274Z,17.99
2022-08-22T00:17:56.281Z,17.99
2022-08-22T00:18:56.251Z,17.91
2022-08-22T00:19:56.240Z,17.94
2022-08-22T00:20:56.228Z,17.92
2022-08-22T00:21:56.217Z,17.94
2022-08-22T00:22:56.204Z,17.94
2022-08-22T00:23:56.195Z,17.89
2022-08-22T00:24:56.186Z,17.89
2022-08-22T00:25:56.176Z,17.84
2022-08-22T00:26:56.167Z,17.81
2022-08-22T00:27:56.226Z,17.79
2022-08-22T00:28:56.137Z,17.77
2022-08-22T00:29:56.129Z,17.80
2022-08-22T00:30:56.112Z,17.84
2022-08-22T00:31:56.108Z,17.77
2022-08-22T00:32:56.092Z,17.77
2022-08-22T00:33:56.082Z,17.81
2022-08-22T00:34:56.070Z,17.77
2022-08-22T00:35:56.060Z,17.84
2022-08-22T00:36:56.049Z,17.80
2022-08-22T00:37:56.038Z,17.84
2022-08-22T00:38:56.023Z,17.86
2022-08-22T00:39:56.057Z,17.76
2022-08-22T00:40:56.002Z,17.81
2022-08-22T00:41:55.994Z,17.79
2022-08-22T00:42:55.979Z,17.77
2022-08-22T00:43:55.969Z,17.71
2022-08-22T00:44:55.957Z,17.74
2022-08-22T00:45:55.975Z,17.77
2022-08-22T00:46:55.933Z,17.70
2022-08-22T00:47:55.991Z,17.76
2022-08-22T00:48:55.911Z,17.74
2022-08-22T00:49:55.902Z,17.70
2022-08-22T00:50:55.890Z,17.73
2022-08-22T00:51:55.880Z,17.68
2022-08-22T00:52:56.291Z,17.73
2022-08-22T00:53:55.858Z,17.66
2022-08-22T00:54:55.848Z,17.63
2022-08-22T00:55:55.835Z,17.66
2022-08-22T00:56:55.822Z,17.63
2022-08-22T00:57:55.882Z,17.65
2022-08-22T00:58:55.800Z,17.58
2022-08-22T00:59:55.789Z,17.57
2022-08-22T01:00:55.859Z,17.58
2022-08-22T01:01:55.764Z,17.60
2022-08-22T01:02:55.751Z,17.55
2022-08-22T01:03:55.741Z,17.58
2022-08-22T01:04:55.983Z,17.63
2022-08-22T01:05:55.722Z,17.58
2022-08-22T01:06:55.707Z,17.66
2022-08-22T01:07:55.780Z,17.55
2022-08-22T01:08:55.684Z,17.66
2022-08-22T01:09:55.675Z,17.71
2022-08-22T01:10:55.664Z,17.74
2022-08-22T01:11:55.653Z,17.77
2022-08-22T01:12:55.643Z,17.71
2022-08-22T01:13:55.629Z,17.74
2022-08-22T01:14:55.619Z,17.71
2022-08-22T01:15:55.607Z,17.68
2022-08-22T01:16:55.597Z,17.68
2022-08-22T01:17:55.695Z,17.66
2022-08-22T01:18:55.571Z,17.63
2022-08-22T01:19:55.563Z,17.65
2022-08-22T01:20:55.551Z,17.65
2022-08-22T01:21:55.541Z,17.63
2022-08-22T01:22:55.529Z,17.66
2022-08-22T01:23:55.518Z,17.71
2022-08-22T01:24:55.507Z,17.63
2022-08-22T01:25:55.496Z,17.62
2022-08-22T01:26:55.482Z,17.66
2022-08-22T01:27:55.522Z,17.58
2022-08-22T01:28:55.466Z,17.58
2022-08-22T01:29:55.452Z,17.66
2022-08-22T01:30:55.437Z,17.58
2022-08-22T01:31:55.427Z,17.58
2022-08-22T01:32:57.109Z,17.55
2022-08-22T01:33:55.405Z,17.63
2022-08-22T01:34:55.389Z,17.60
2022-08-22T01:35:55.380Z,17.65
2022-08-22T01:36:55.371Z,17.55
2022-08-22T01:37:55.403Z,17.60
2022-08-22T01:38:55.346Z,17.60
2022-08-22T01:39:55.411Z,17.63
2022-08-22T01:40:55.325Z,17.58
2022-08-22T01:41:55.315Z,17.65
2022-08-22T01:42:55.301Z,17.58
2022-08-22T01:44:00.500Z,17.65
2022-08-22T01:44:55.278Z,17.68
2022-08-22T01:45:55.271Z,17.70
2022-08-22T01:46:55.256Z,17.68
2022-08-22T01:47:55.256Z,17.63
2022-08-22T01:48:55.233Z,17.71
2022-08-22T01:49:55.227Z,17.71
2022-08-22T01:50:55.211Z,17.76
2022-08-22T01:51:55.203Z,17.68
2022-08-22T01:52:55.188Z,17.66
2022-08-22T01:53:55.177Z,17.73
2022-08-22T01:54:55.170Z,17.68
2022-08-22T01:55:55.155Z,17.65
2022-08-22T01:56:55.144Z,17.68
2022-08-22T01:57:55.311Z,17.71
2022-08-22T01:58:55.123Z,17.68
2022-08-22T01:59:55.111Z,17.73
2022-08-22T02:00:55.184Z,17.71
2022-08-22T02:01:55.289Z,17.74
2022-08-22T02:02:55.078Z,17.77
2022-08-22T02:03:55.065Z,17.70
2022-08-22T02:04:55.053Z,17.76
2022-08-22T02:05:55.044Z,17.77
2022-08-22T02:06:55.029Z,17.76
2022-08-22T02:07:55.021Z,17.80
2022-08-22T02:08:55.008Z,17.79
2022-08-22T02:09:55.000Z,17.80
2022-08-22T02:10:54.989Z,17.83
2022-08-22T02:11:54.975Z,17.83
2022-08-22T02:12:54.963Z,17.84
2022-08-22T02:13:54.956Z,17.89
2022-08-22T02:14:54.943Z,17.87
2022-08-22T02:15:54.929Z,17.87
2022-08-22T02:16:54.918Z,17.83
2022-08-22T02:17:54.908Z,17.91
2022-08-22T02:18:54.895Z,17.98
2022-08-22T02:19:54.888Z,17.92
2022-08-22T02:20:54.870Z,17.98
2022-08-22T02:21:54.863Z,17.98
2022-08-22T02:22:54.848Z,17.98
2022-08-22T02:23:55.510Z,17.95
2022-08-22T02:24:54.827Z,17.89
2022-08-22T02:25:54.820Z,17.94
2022-08-22T02:26:54.803Z,17.92
2022-08-22T02:27:54.886Z,17.92
2022-08-22T02:28:57.077Z,17.91
2022-08-22T02:29:54.774Z,17.87
2022-08-22T02:30:54.758Z,17.92
2022-08-22T02:31:54.799Z,17.86
2022-08-22T02:32:54.737Z,17.84
2022-08-22T02:33:54.726Z,17.87
2022-08-22T02:34:54.714Z,17.84
2022-08-22T02:35:54.704Z,17.81
2022-08-22T02:36:54.696Z,17.86
2022-08-22T02:37:54.740Z,17.83
2022-08-22T02:38:54.669Z,17.77
2022-08-22T02:39:54.707Z,17.74
2022-08-22T02:40:54.647Z,17.76
2022-08-22T02:41:54.642Z,17.74
2022-08-22T02:42:54.625Z,17.80
2022-08-22T02:43:54.615Z,17.66
2022-08-22T02:44:54.601Z,17.71
2022-08-22T02:45:54.592Z,17.68
2022-08-22T02:46:54.584Z,17.66
2022-08-22T02:47:54.612Z,17.62
2022-08-22T02:48:54.556Z,17.60
2022-08-22T02:49:54.549Z,17.65
2022-08-22T02:50:54.536Z,17.58
2022-08-22T02:51:54.527Z,17.58
2022-08-22T02:52:54.532Z,17.55
2022-08-22T02:53:54.711Z,17.57
2022-08-22T02:54:54.488Z,17.60
2022-08-22T02:55:54.484Z,17.55
2022-08-22T02:56:54.477Z,17.65
2022-08-22T02:57:54.457Z,17.62
2022-08-22T02:58:57.005Z,17.55
2022-08-22T02:59:54.434Z,17.60
2022-08-22T03:00:54.482Z,17.62
2022-08-22T03:01:54.424Z,17.63
2022-08-22T03:02:54.432Z,17.63
2022-08-22T03:03:54.570Z,17.70
2022-08-22T03:04:54.375Z,17.66
2022-08-22T03:05:57.862Z,17.70
2022-08-22T03:06:55.381Z,17.68
2022-08-22T03:07:54.348Z,17.71
2022-08-22T03:08:54.333Z,17.65
2022-08-22T03:09:54.323Z,17.66
2022-08-22T03:10:54.312Z,17.65
2022-08-22T03:11:54.298Z,17.65
2022-08-22T03:12:57.393Z,17.63
2022-08-22T03:13:54.273Z,17.63
2022-08-22T03:14:54.265Z,17.70
2022-08-22T03:15:54.252Z,17.66
2022-08-22T03:16:54.241Z,17.66
2022-08-22T03:17:54.229Z,17.58
2022-08-22T03:18:54.221Z,17.60
2022-08-22T03:19:54.209Z,17.68
2022-08-22T03:20:54.194Z,17.63
2022-08-22T03:21:54.188Z,17.65
2022-08-22T03:22:54.175Z,17.63
2022-08-22T03:23:54.160Z,17.60
2022-08-22T03:24:54.151Z,17.62
2022-08-22T03:25:54.137Z,17.65
2022-08-22T03:26:54.129Z,17.65
2022-08-22T03:27:54.115Z,17.62
2022-08-22T03:28:59.682Z,17.58
2022-08-22T03:29:55.121Z,17.63
2022-08-22T03:30:54.086Z,17.63
2022-08-22T03:31:54.070Z,17.63
2022-08-22T03:32:54.060Z,17.68
2022-08-22T03:33:54.048Z,17.63
2022-08-22T03:34:54.040Z,17.70
2022-08-22T03:35:54.024Z,17.71
2022-08-22T03:36:54.020Z,17.73
2022-08-22T03:37:54.007Z,17.73
2022-08-22T03:38:53.993Z,17.71
2022-08-22T03:39:54.039Z,17.73
2022-08-22T03:40:53.975Z,17.77
2022-08-22T03:41:53.961Z,17.73
2022-08-22T03:42:53.948Z,17.76
2022-08-22T03:43:53.934Z,17.74
2022-08-22T03:44:53.926Z,17.71
2022-08-22T03:45:53.911Z,17.68
2022-08-22T03:46:53.902Z,17.70
2022-08-22T03:47:53.889Z,17.71
2022-08-22T03:48:53.879Z,17.63
2022-08-22T03:49:57.651Z,17.66
2022-08-22T03:50:54.478Z,17.66
2022-08-22T03:51:53.845Z,17.62
2022-08-22T03:52:53.835Z,17.62
2022-08-22T03:53:53.821Z,17.51
2022-08-22T03:54:53.811Z,17.51
2022-08-22T03:55:53.799Z,17.54
2022-08-22T03:56:54.079Z,17.53
2022-08-22T03:57:54.841Z,17.53
2022-08-22T03:58:53.765Z,17.42
2022-08-22T03:59:53.754Z,17.46
2022-08-22T04:00:56.064Z,17.49
2022-08-22T04:01:53.731Z,17.49
2022-08-22T04:02:53.721Z,17.39
2022-08-22T04:03:53.714Z,17.36
2022-08-22T04:04:53.706Z,17.38
2022-08-22T04:05:53.721Z,17.28
2022-08-22T04:06:56.516Z,17.24
2022-08-22T04:07:53.709Z,17.24
2022-08-22T04:08:53.767Z,17.25
2022-08-22T04:09:53.771Z,17.21
2022-08-22T04:10:53.794Z,17.12
2022-08-22T04:11:53.699Z,17.09
2022-08-22T04:12:53.610Z,17.06
2022-08-22T04:13:53.599Z,17.03
2022-08-22T04:14:53.587Z,17.00
2022-08-22T04:15:53.574Z,17.00
2022-08-22T04:16:53.565Z,16.98
2022-08-22T04:17:53.565Z,16.98
2022-08-22T04:18:53.547Z,16.98
2022-08-22T04:19:53.533Z,16.96
2022-08-22T04:20:53.521Z,16.88
2022-08-22T04:21:53.509Z,16.90
2022-08-22T04:22:53.498Z,16.90
2022-08-22T04:23:53.485Z,16.87
2022-08-22T04:24:53.475Z,16.85
2022-08-22T04:25:53.463Z,16.82
2022-08-22T04:26:53.461Z,16.82
2022-08-22T04:27:53.446Z,16.73
2022-08-22T04:28:53.437Z,16.77
2022-08-22T04:29:53.419Z,16.80
2022-08-22T04:30:53.412Z,16.77
2022-08-22T04:31:53.396Z,16.73
2022-08-22T04:32:53.387Z,16.67
2022-08-22T04:33:53.379Z,16.60
2022-08-22T04:34:53.367Z,16.60
2022-08-22T04:35:53.355Z,16.57
2022-08-22T04:36:53.342Z,16.55
2022-08-22T04:37:53.337Z,16.50
2022-08-22T04:38:53.324Z,16.48
2022-08-22T04:39:53.430Z,16.52
2022-08-22T04:40:53.299Z,16.52
2022-08-22T04:41:53.291Z,16.51
2022-08-22T04:42:53.277Z,16.54
2022-08-22T04:43:53.264Z,16.45
2022-08-22T04:44:53.256Z,16.45
2022-08-22T04:45:53.245Z,16.45
2022-08-22T04:46:53.235Z,16.52
2022-08-22T04:47:54.298Z,16.47
2022-08-22T04:48:53.209Z,16.44
2022-08-22T04:49:53.222Z,16.50
2022-08-22T04:50:53.191Z,16.47
2022-08-22T04:51:53.175Z,16.47
2022-08-22T04:52:53.168Z,16.50
2022-08-22T04:53:53.159Z,16.47
2022-08-22T04:54:53.144Z,16.54
2022-08-22T04:55:53.134Z,16.52
2022-08-22T04:56:53.121Z,16.57
2022-08-22T04:57:53.233Z,16.66
2022-08-22T04:58:53.101Z,16.69
2022-08-22T04:59:53.088Z,16.69
2022-08-22T05:00:53.091Z,16.77
2022-08-22T05:01:53.150Z,16.80
2022-08-22T05:02:53.058Z,16.87
2022-08-22T05:03:53.044Z,16.85
2022-08-22T05:04:53.035Z,16.98
2022-08-22T05:05:53.019Z,17.02
2022-08-22T05:06:53.013Z,17.05
2022-08-22T05:07:53.038Z,17.00
2022-08-22T05:08:53.636Z,17.12
2022-08-22T05:09:52.979Z,17.12
2022-08-22T05:10:52.973Z,17.14
2022-08-22T05:11:52.978Z,17.14
2022-08-22T05:12:52.947Z,17.15
2022-08-22T05:13:52.931Z,17.18
2022-08-22T05:14:54.538Z,17.25
2022-08-22T05:15:52.908Z,17.24
2022-08-22T05:16:52.902Z,17.22
2022-08-22T05:17:53.699Z,17.32
2022-08-22T05:18:52.877Z,17.33
2022-08-22T05:19:52.865Z,17.39
2022-08-22T05:20:52.855Z,17.43
2022-08-22T05:21:52.841Z,17.46
2022-08-22T05:22:52.874Z,17.47
2022-08-22T05:23:52.822Z,17.51
2022-08-22T05:24:52.813Z,17.57
2022-08-22T05:25:52.806Z,17.57
2022-08-22T05:26:52.788Z,17.57
2022-08-22T05:27:53.303Z,17.60
2022-08-22T05:28:53.525Z,17.68
2022-08-22T05:29:52.750Z,17.66
2022-08-22T05:30:52.743Z,17.68
2022-08-22T05:31:52.729Z,17.70
2022-08-22T05:32:52.732Z,17.62
2022-08-22T05:33:52.739Z,17.62
2022-08-22T05:34:52.696Z,17.58
2022-08-22T05:35:57.746Z,17.58
2022-08-22T05:36:52.679Z,17.58
2022-08-22T05:37:52.682Z,17.57
2022-08-22T05:38:52.650Z,17.54
2022-08-22T05:39:52.715Z,17.51
2022-08-22T05:40:52.633Z,17.54
2022-08-22T05:41:52.617Z,17.55
2022-08-22T05:42:52.615Z,17.66
2022-08-22T05:43:52.622Z,17.70
2022-08-22T05:44:52.599Z,17.71
2022-08-22T05:45:52.576Z,17.80
2022-08-22T05:46:52.564Z,17.92
2022-08-22T05:47:52.618Z,17.96
2022-08-22T05:48:52.539Z,17.98
2022-08-22T05:49:52.780Z,18.07
2022-08-22T05:50:52.523Z,18.13
2022-08-22T05:51:52.506Z,18.19
2022-08-22T05:52:52.493Z,18.23
2022-08-22T05:53:52.481Z,18.36
2022-08-22T05:54:52.485Z,18.41
2022-08-22T05:55:52.478Z,18.38
2022-08-22T05:56:52.450Z,18.50
2022-08-22T05:57:52.488Z,18.54
2022-08-22T05:58:52.427Z,18.59
2022-08-22T05:59:52.418Z,18.68
2022-08-22T06:00:52.410Z,18.76
2022-08-22T06:01:52.431Z,18.84
2022-08-22T06:02:52.411Z,18.86
2022-08-22T06:03:52.373Z,18.96
2022-08-22T06:04:52.370Z,19.01
2022-08-22T06:05:52.365Z,19.06
2022-08-22T06:06:52.403Z,19.06
2022-08-22T06:07:52.481Z,19.09
2022-08-22T06:08:52.330Z,19.15
2022-08-22T06:09:52.313Z,19.13
2022-08-22T06:10:52.298Z,19.17
2022-08-22T06:11:52.288Z,19.20
2022-08-22T06:12:52.276Z,19.28
2022-08-22T06:13:52.261Z,19.34
2022-08-22T06:14:52.255Z,19.40
2022-08-22T06:15:52.245Z,19.46
2022-08-22T06:16:52.233Z,19.45
2022-08-22T06:17:52.237Z,19.50
2022-08-22T06:18:52.207Z,19.55
2022-08-22T06:19:52.194Z,19.49
2022-08-22T06:20:52.235Z,19.58
2022-08-22T06:21:52.169Z,19.62
2022-08-22T06:22:52.161Z,19.62
2022-08-22T06:23:52.149Z,19.65
2022-08-22T06:24:52.144Z,19.67
2022-08-22T06:25:52.125Z,19.64
2022-08-22T06:26:52.116Z,19.67
2022-08-22T06:27:52.112Z,19.71
2022-08-22T06:28:55.620Z,19.82
2022-08-22T06:29:52.082Z,19.90
2022-08-22T06:30:52.080Z,19.94
2022-08-22T06:31:52.065Z,19.97
2022-08-22T06:32:59.219Z,19.97
2022-08-22T06:33:52.043Z,20.02
2022-08-22T06:34:52.228Z,20.12
2022-08-22T06:35:52.015Z,20.17
2022-08-22T06:36:52.005Z,20.34
2022-08-22T06:37:51.996Z,20.46
2022-08-22T06:38:52.002Z,20.64
2022-08-22T06:39:52.041Z,20.88
2022-08-22T06:40:51.963Z,20.98
2022-08-22T06:41:51.951Z,21.19
2022-08-22T06:42:51.947Z,21.36
2022-08-22T06:43:51.931Z,21.37
2022-08-22T06:44:51.918Z,21.51
2022-08-22T06:45:51.903Z,21.73
2022-08-22T06:46:51.897Z,22.06
2022-08-22T06:47:53.564Z,22.11
2022-08-22T06:48:51.873Z,22.12
2022-08-22T06:49:51.862Z,22.14
2022-08-22T06:50:51.880Z,22.24
2022-08-22T06:51:51.837Z,22.27
2022-08-22T06:52:51.830Z,22.33
2022-08-22T06:53:51.837Z,22.29
2022-08-22T06:54:51.806Z,22.30
2022-08-22T06:55:51.795Z,22.39
2022-08-22T06:56:51.786Z,22.44
2022-08-22T06:57:51.772Z,22.63
2022-08-22T06:58:51.766Z,22.75
2022-08-22T06:59:51.755Z,22.85
2022-08-22T07:01:11.850Z,22.89
2022-08-22T07:01:51.865Z,23.25
2022-08-22T07:02:51.720Z,23.29
2022-08-22T07:03:51.708Z,23.41
2022-08-22T07:04:51.698Z,23.57
2022-08-22T07:05:51.685Z,23.49
2022-08-22T07:06:51.676Z,23.54
2022-08-22T07:07:51.663Z,23.54
2022-08-22T07:08:51.653Z,23.56
2022-08-22T07:09:51.643Z,23.56
2022-08-22T07:10:51.631Z,23.68
2022-08-22T07:11:51.648Z,23.77
2022-08-22T07:12:51.627Z,23.71
2022-08-22T07:13:51.596Z,23.97
2022-08-22T07:14:51.588Z,24.06
2022-08-22T07:15:51.577Z,24.15
2022-08-22T07:16:51.565Z,24.09
2022-08-22T07:17:51.556Z,23.97
2022-08-22T07:18:51.546Z,24.00
2022-08-22T07:19:51.538Z,24.27
2022-08-22T07:20:51.522Z,24.31
2022-08-22T07:21:51.513Z,24.31
2022-08-22T07:22:54.026Z,24.31
2022-08-22T07:23:51.524Z,24.16
2022-08-22T07:24:51.479Z,24.21
2022-08-22T07:25:51.470Z,24.27
2022-08-22T07:26:51.456Z,24.55
2022-08-22T07:27:52.528Z,24.90
2022-08-22T07:28:57.936Z,24.90
2022-08-22T07:29:51.425Z,24.98
2022-08-22T07:30:51.414Z,24.99
2022-08-22T07:31:51.407Z,24.94
2022-08-22T07:32:51.405Z,25.09
2022-08-22T07:33:51.407Z,25.35
2022-08-22T07:34:51.377Z,25.51
2022-08-22T07:35:53.772Z,25.22
2022-08-22T07:36:51.350Z,25.38
2022-08-22T07:37:51.339Z,25.42
2022-08-22T07:38:51.325Z,25.59
2022-08-22T07:39:51.388Z,25.59
2022-08-22T07:40:51.306Z,25.66
2022-08-22T07:41:51.298Z,25.79
2022-08-22T07:42:51.287Z,25.76
2022-08-22T07:43:51.276Z,26.01
2022-08-22T07:44:51.282Z,26.00
2022-08-22T07:45:51.272Z,26.08
2022-08-22T07:46:51.243Z,26.08
2022-08-22T07:47:51.235Z,26.24
2022-08-22T07:49:08.247Z,26.36
2022-08-22T07:49:51.212Z,26.39
2022-08-22T07:50:51.206Z,26.49
2022-08-22T07:51:51.190Z,26.34
2022-08-22T07:52:51.178Z,26.09
2022-08-22T07:53:51.169Z,26.06
2022-08-22T07:54:51.160Z,25.98
2022-08-22T07:55:51.159Z,25.94
2022-08-22T07:56:51.148Z,26.12
2022-08-22T07:57:51.127Z,26.39
2022-08-22T07:58:51.122Z,26.29
2022-08-22T07:59:51.105Z,26.29
2022-08-22T08:00:51.092Z,26.12
2022-08-22T08:01:51.177Z,25.94
2022-08-22T08:02:51.071Z,25.81
2022-08-22T08:03:51.065Z,26.03
2022-08-22T08:04:51.049Z,26.23
2022-08-22T08:05:51.043Z,26.20
2022-08-22T08:06:51.051Z,26.09
2022-08-22T08:07:51.035Z,26.31
2022-08-22T08:08:51.016Z,26.57
2022-08-22T08:09:51.000Z,26.71
2022-08-22T08:10:50.992Z,26.81
2022-08-22T08:11:50.983Z,26.97
2022-08-22T08:12:56.156Z,27.03
2022-08-22T08:13:51.992Z,27.09
2022-08-22T08:14:50.949Z,26.86
2022-08-22T08:15:50.937Z,27.13
2022-08-22T08:16:50.926Z,27.25
2022-08-22T08:17:50.920Z,27.18
2022-08-22T08:18:50.907Z,27.34
2022-08-22T08:19:50.914Z,27.31
2022-08-22T08:20:51.062Z,27.49
2022-08-22T08:21:50.873Z,27.27
2022-08-22T08:22:50.860Z,27.24
2022-08-22T08:23:50.851Z,27.24
2022-08-22T08:24:50.837Z,27.09
2022-08-22T08:25:53.445Z,26.81
2022-08-22T08:26:50.819Z,26.60
2022-08-22T08:27:50.812Z,26.87
2022-08-22T08:28:50.801Z,27.12
2022-08-22T08:29:50.811Z,27.30
2022-08-22T08:30:50.779Z,27.23
2022-08-22T08:31:50.783Z,27.45
2022-08-22T08:32:50.766Z,27.62
2022-08-22T08:33:50.748Z,27.49
2022-08-22T08:34:50.735Z,27.08
2022-08-22T08:36:03.412Z,26.81
2022-08-22T08:36:50.717Z,26.94
2022-08-22T08:37:50.709Z,27.30
2022-08-22T08:38:50.698Z,27.38
2022-08-22T08:39:50.847Z,27.27
2022-08-22T08:40:50.691Z,27.38
2022-08-22T08:41:50.665Z,27.48
2022-08-22T08:42:50.661Z,27.77
2022-08-22T08:43:50.646Z,28.13
2022-08-22T08:44:50.635Z,28.28
2022-08-22T08:45:50.630Z,28.27
2022-08-22T08:46:55.463Z,28.33
2022-08-22T08:47:50.607Z,28.55
2022-08-22T08:48:50.592Z,28.36
2022-08-22T08:49:50.655Z,28.40
2022-08-22T08:50:50.594Z,28.62
2022-08-22T08:51:50.576Z,28.67
2022-08-22T08:52:53.069Z,28.97
2022-08-22T08:53:50.543Z,28.94
2022-08-22T08:54:50.529Z,29.14
2022-08-22T08:55:50.524Z,29.07
2022-08-22T08:56:50.513Z,28.79
2022-08-22T08:57:50.501Z,28.72
2022-08-22T08:58:50.864Z,28.25
2022-08-22T08:59:50.483Z,27.91
2022-08-22T09:00:50.570Z,28.06
2022-08-22T09:01:50.471Z,28.38
2022-08-22T09:02:50.499Z,28.87
2022-08-22T09:03:51.275Z,29.11
2022-08-22T09:04:50.436Z,29.42
2022-08-22T09:05:50.424Z,29.57
2022-08-22T09:06:52.781Z,29.63
2022-08-22T09:07:51.446Z,29.76
2022-08-22T09:08:55.542Z,29.63
2022-08-22T09:10:51.401Z,29.08
2022-08-22T09:11:50.361Z,29.07
2022-08-22T09:12:56.508Z,29.02
2022-08-22T09:13:50.386Z,29.14
2022-08-22T09:14:50.363Z,29.42
2022-08-22T09:16:51.898Z,29.99
2022-08-22T09:17:50.303Z,30.04
2022-08-22T09:18:50.291Z,29.67
2022-08-22T09:19:50.280Z,29.81
2022-08-22T09:20:50.272Z,30.07
2022-08-22T09:21:50.265Z,30.42
2022-08-22T09:22:50.699Z,30.79
2022-08-22T09:23:53.280Z,30.49
2022-08-22T09:24:50.297Z,30.00
2022-08-22T09:25:50.239Z,30.11
2022-08-22T09:26:50.213Z,30.11
2022-08-22T09:27:50.205Z,30.25
2022-08-22T09:28:50.197Z,30.48
2022-08-22T09:30:54.197Z,30.76
2022-08-22T09:31:52.073Z,30.91
2022-08-22T09:32:50.150Z,31.04
2022-08-22T09:33:50.141Z,30.61
2022-08-22T09:34:50.130Z,30.49
2022-08-22T09:35:50.124Z,30.61
2022-08-22T09:36:50.138Z,30.32
2022-08-22T09:37:50.103Z,30.28
2022-08-22T09:38:50.093Z,30.18
2022-08-22T09:39:50.167Z,30.44
2022-08-22T09:40:16.318Z,29.86
2022-08-22T09:40:16.383Z,29.32
2022-08-22T09:40:16.764Z,30.85
2022-08-22T09:40:50.073Z,30.81
2022-08-22T09:41:51.748Z,31.15
2022-08-22T09:42:50.050Z,31.34
2022-08-22T09:43:50.046Z,31.62
2022-08-22T09:44:50.025Z,31.71
2022-08-22T09:45:50.239Z,31.72
2022-08-22T09:46:50.018Z,31.30
2022-08-22T09:47:50.024Z,31.00
2022-08-22T09:48:49.990Z,30.64
2022-08-22T09:49:49.988Z,31.13
2022-08-22T09:50:52.601Z,31.07
2022-08-22T09:51:49.969Z,30.26
2022-08-22T09:52:49.953Z,30.67
2022-08-22T09:53:49.945Z,31.10
2022-08-22T09:54:49.935Z,31.40
2022-08-22T09:55:50.174Z,31.47
2022-08-22T09:56:49.915Z,31.40
2022-08-22T09:57:49.925Z,31.56
2022-08-22T09:58:49.898Z,31.84
2022-08-22T09:59:49.909Z,32.10
2022-08-22T10:00:55.177Z,32.25
2022-08-22T10:01:49.868Z,32.51
2022-08-22T10:02:50.383Z,32.58
2022-08-22T10:03:49.847Z,32.46
2022-08-22T10:04:49.837Z,32.50
2022-08-22T10:05:49.826Z,32.76
2022-08-22T10:06:49.817Z,32.58
2022-08-22T10:07:52.730Z,32.35
2022-08-22T10:08:49.806Z,32.44
2022-08-22T10:09:49.818Z,32.40
2022-08-22T10:10:49.818Z,32.32
2022-08-22T10:11:49.773Z,32.05
2022-08-22T10:12:49.761Z,32.39
2022-08-22T10:13:57.257Z,32.56
2022-08-22T10:14:51.146Z,32.91
2022-08-22T10:15:49.733Z,32.95
2022-08-22T10:16:49.721Z,33.28
2022-08-22T10:17:49.713Z,33.70
2022-08-22T10:18:52.878Z,33.02
2022-08-22T10:19:49.692Z,32.49
2022-08-22T10:20:49.690Z,32.28
2022-08-22T10:21:49.690Z,32.47
2022-08-22T10:22:49.662Z,32.49
2022-08-22T10:23:49.657Z,32.46
2022-08-22T10:24:49.644Z,31.97
2022-08-22T10:25:49.635Z,31.22
2022-08-22T10:26:49.625Z,31.34
2022-08-22T10:27:49.616Z,30.79
2022-08-22T10:28:49.603Z,30.15
2022-08-22T10:29:49.597Z,30.97
2022-08-22T10:30:49.586Z,31.45
2022-08-22T10:31:58.909Z,31.57
2022-08-22T10:32:50.593Z,32.40
2022-08-22T10:33:49.564Z,33.26
2022-08-22T10:34:49.548Z,33.74
2022-08-22T10:35:49.541Z,33.02
2022-08-22T10:36:49.528Z,32.44
2022-08-22T10:37:50.385Z,32.54
2022-08-22T10:38:49.506Z,33.02
2022-08-22T10:39:49.523Z,33.06
2022-08-22T10:40:49.486Z,32.56
2022-08-22T10:41:49.478Z,32.93
2022-08-22T10:42:49.463Z,33.18
2022-08-22T10:43:49.485Z,33.43
2022-08-22T10:44:50.466Z,33.12
2022-08-22T10:45:49.434Z,33.18
2022-08-22T10:46:49.420Z,32.77
2022-08-22T10:47:49.414Z,32.44
2022-08-22T10:48:49.409Z,32.22
2022-08-22T10:49:51.292Z,31.92
2022-08-22T10:50:49.382Z,32.36
2022-08-22T10:51:49.376Z,32.31
2022-08-22T10:52:49.366Z,32.50
2022-08-22T10:53:49.359Z,32.68
2022-08-22T10:54:49.383Z,32.65
2022-08-22T10:55:49.352Z,31.99
2022-08-22T10:56:49.331Z,31.94
2022-08-22T10:57:52.688Z,31.91
2022-08-22T10:58:49.311Z,31.72
2022-08-22T10:59:49.311Z,31.74
2022-08-22T11:00:49.981Z,31.90
2022-08-22T11:01:49.429Z,31.54
2022-08-22T11:02:49.391Z,31.74
2022-08-22T11:03:49.376Z,31.78
2022-08-22T11:04:49.382Z,31.99
2022-08-22T11:05:50.940Z,32.12
2022-08-22T11:06:49.280Z,32.16
2022-08-22T11:07:50.275Z,31.99
2022-08-22T11:08:49.210Z,31.42
2022-08-22T11:09:49.202Z,31.30
2022-08-22T11:10:49.203Z,31.25
2022-08-22T11:11:49.180Z,30.91
2022-08-22T11:12:49.169Z,30.83
2022-08-22T11:13:49.736Z,31.13
2022-08-22T11:14:49.152Z,30.81
2022-08-22T11:15:49.142Z,30.38
2022-08-22T11:16:55.236Z,30.54
2022-08-22T11:17:53.983Z,30.93
2022-08-22T11:18:51.490Z,31.19
2022-08-22T11:19:49.134Z,31.60
2022-08-22T11:20:49.089Z,31.75
2022-08-22T11:21:50.878Z,31.94
2022-08-22T11:22:49.071Z,32.16
2022-08-22T11:23:49.059Z,32.25
2022-08-22T11:24:55.724Z,32.12
2022-08-22T11:25:52.403Z,32.02
2022-08-22T11:26:49.029Z,31.85
2022-08-22T11:27:49.025Z,31.68
2022-08-22T11:28:49.024Z,31.69
2022-08-22T11:29:49.008Z,31.78
2022-08-22T11:30:50.386Z,31.82
2022-08-22T11:31:51.485Z,31.72
2022-08-22T11:32:48.966Z,31.67
2022-08-22T11:33:48.959Z,31.69
2022-08-22T11:34:48.945Z,31.78
2022-08-22T11:35:48.932Z,31.68
2022-08-22T11:36:50.235Z,31.67
2022-08-22T11:37:48.915Z,31.76
2022-08-22T11:38:49.930Z,31.65
2022-08-22T11:39:48.957Z,31.69
2022-08-22T11:40:48.931Z,31.84
2022-08-22T11:41:52.500Z,31.78
2022-08-22T11:42:48.867Z,31.50
2022-08-22T11:43:48.853Z,31.40
2022-08-22T11:44:50.961Z,31.40
2022-08-22T11:45:48.830Z,31.32
2022-08-22T11:46:48.824Z,31.23
2022-08-22T11:47:48.812Z,31.25
2022-08-22T11:48:48.856Z,31.04
2022-08-22T11:49:49.106Z,30.88
2022-08-22T11:50:48.793Z,30.48
2022-08-22T11:51:49.537Z,30.57
2022-08-22T11:52:51.684Z,30.48
2022-08-22T11:53:48.750Z,30.46
2022-08-22T11:54:48.743Z,30.61
2022-08-22T11:55:48.735Z,30.66
2022-08-22T11:56:48.722Z,30.72
2022-08-22T11:57:48.714Z,30.76
2022-08-22T11:58:48.704Z,30.82
2022-08-22T11:59:48.689Z,30.75
2022-08-22T12:00:48.680Z,30.64
2022-08-22T12:01:48.734Z,30.79
2022-08-22T12:02:48.684Z,30.94
2022-08-22T12:03:55.886Z,31.15
2022-08-22T12:04:49.664Z,31.25
2022-08-22T12:05:48.624Z,31.37
2022-08-22T12:06:49.733Z,31.40
2022-08-22T12:07:50.608Z,31.16
2022-08-22T12:08:48.593Z,31.13
2022-08-22T12:09:48.585Z,31.13
2022-08-22T12:10:48.576Z,31.01
2022-08-22T12:11:48.568Z,31.13
2022-08-22T12:12:48.554Z,30.79
2022-08-22T12:13:48.552Z,30.75
2022-08-22T12:14:48.552Z,30.59
2022-08-22T12:15:53.748Z,30.60
2022-08-22T12:16:48.511Z,30.78
2022-08-22T12:17:51.136Z,31.16
2022-08-22T12:18:52.959Z,31.41
2022-08-22T12:20:12.702Z,31.16
2022-08-22T12:20:49.507Z,31.20
2022-08-22T12:21:49.589Z,31.30
2022-08-22T12:22:49.793Z,31.38
2022-08-22T12:23:49.294Z,31.42
2022-08-22T12:24:48.451Z,30.91
2022-08-22T12:25:48.449Z,31.01
2022-08-22T12:26:48.409Z,31.23
2022-08-22T12:27:50.630Z,31.37
2022-08-22T12:28:48.390Z,31.53
2022-08-22T12:29:48.378Z,31.46
2022-08-22T12:30:48.367Z,31.22
2022-08-22T12:31:48.357Z,31.12
2022-08-22T12:32:48.973Z,31.16
2022-08-22T12:33:48.379Z,31.18
2022-08-22T12:34:48.368Z,31.23
2022-08-22T12:35:48.319Z,31.10
2022-08-22T12:36:48.336Z,30.73
2022-08-22T12:38:03.032Z,30.51
2022-08-22T12:38:49.316Z,30.67
2022-08-22T12:39:48.346Z,30.60
2022-08-22T12:40:48.267Z,30.60
2022-08-22T12:41:48.411Z,30.54
2022-08-22T12:42:48.247Z,30.60
2022-08-22T12:43:49.612Z,30.73
2022-08-22T12:44:48.226Z,30.88
2022-08-22T12:45:50.768Z,30.97
2022-08-22T12:46:48.218Z,31.15
2022-08-22T12:47:48.192Z,31.23